createdAt,value
2022-08-26T00:02:02.361Z,1.10
2022-08-26T00:04:31.306Z,1.08
2022-08-26T00:06:59.211Z,1.00
2022-08-26T00:09:26.940Z,1.23
2022-08-26T00:11:55.664Z,1.40
2022-08-26T00:14:27.048Z,0.85
2022-08-26T00:16:55.957Z,0.85
2022-08-26T00:19:24.024Z,0.90
2022-08-26T00:21:51.795Z,1.20
2022-08-26T00:24:19.765Z,1.00
2022-08-26T00:26:47.641Z,0.90
2022-08-26T00:29:16.381Z,1.20
2022-08-26T00:31:45.401Z,0.95
2022-08-26T00:34:13.918Z,0.90
2022-08-26T00:36:41.367Z,0.93
2022-08-26T00:39:08.812Z,0.95
2022-08-26T00:41:36.614Z,1.27
2022-08-26T00:44:05.075Z,1.27
2022-08-26T00:46:36.110Z,1.20
2022-08-26T00:49:11.837Z,1.15
2022-08-26T00:51:43.669Z,1.10
2022-08-26T00:54:11.319Z,1.20
2022-08-26T00:56:41.496Z,1.40
2022-08-26T00:59:10.352Z,1.40
2022-08-26T01:01:40.768Z,1.48
2022-08-26T01:04:08.391Z,1.42
2022-08-26T01:06:35.832Z,1.10
2022-08-26T01:09:03.236Z,1.20
2022-08-26T01:11:31.688Z,1.10
2022-08-26T01:14:01.383Z,1.40
2022-08-26T01:16:30.695Z,1.30
2022-08-26T01:19:01.033Z,1.35
2022-08-26T01:21:30.339Z,1.23
2022-08-26T01:24:00.092Z,1.10
2022-08-26T01:26:30.591Z,1.30
2022-08-26T01:29:00.136Z,1.38
2022-08-26T01:31:29.642Z,1.10
2022-08-26T01:34:00.730Z,1.02
2022-08-26T01:36:28.178Z,1.10
2022-08-26T01:38:55.649Z,1.20
2022-08-26T01:41:27.565Z,1.20
2022-08-26T01:43:57.252Z,1.15
2022-08-26T01:46:25.873Z,1.20
2022-08-26T01:48:55.569Z,1.40
2022-08-26T01:51:23.431Z,1.42
2022-08-26T01:53:50.915Z,1.13
2022-08-26T01:56:18.493Z,1.30
2022-08-26T01:58:51.299Z,0.90
2022-08-26T02:01:19.689Z,1.40
2022-08-26T02:03:51.389Z,1.17
2022-08-26T02:06:19.577Z,1.10
2022-08-26T02:08:48.111Z,0.93
2022-08-26T02:11:18.460Z,0.90
2022-08-26T02:13:47.520Z,1.20
2022-08-26T02:16:18.353Z,1.17
2022-08-26T02:18:47.089Z,1.13
2022-08-26T02:21:14.722Z,0.80
2022-08-26T02:23:42.585Z,1.00
2022-08-26T02:26:10.917Z,1.27
2022-08-26T02:28:41.422Z,1.15
2022-08-26T02:31:08.954Z,1.15
2022-08-26T02:33:43.050Z,1.33
2022-08-26T02:36:10.734Z,1.38
2022-08-26T02:38:40.847Z,1.38
2022-08-26T02:41:11.145Z,1.35
2022-08-26T02:43:38.585Z,1.40
2022-08-26T02:46:06.144Z,1.45
2022-08-26T02:48:33.789Z,1.33
2022-08-26T02:51:02.555Z,1.53
2022-08-26T02:53:31.877Z,1.20
2022-08-26T02:56:03.055Z,1.20
2022-08-26T02:58:30.620Z,1.10
2022-08-26T03:00:58.126Z,1.50
2022-08-26T03:03:25.591Z,1.77
2022-08-26T03:05:53.050Z,2.10
2022-08-26T03:08:23.102Z,1.83
2022-08-26T03:10:50.784Z,1.27
2022-08-26T03:13:18.543Z,1.70
2022-08-26T03:15:47.640Z,1.43
2022-08-26T03:18:16.038Z,1.40
2022-08-26T03:20:43.875Z,1.30
2022-08-26T03:23:11.858Z,1.30
2022-08-26T03:25:41.671Z,1.42
2022-08-26T03:28:10.055Z,1.42
2022-08-26T03:30:44.658Z,1.20
2022-08-26T03:33:13.213Z,1.20
2022-08-26T03:35:41.641Z,0.90
2022-08-26T03:38:09.141Z,1.00
2022-08-26T03:40:37.024Z,1.05
2022-08-26T03:43:07.074Z,0.80
2022-08-26T03:45:37.800Z,0.90
2022-08-26T03:48:05.322Z,1.58
2022-08-26T03:50:34.380Z,1.50
2022-08-26T03:53:03.753Z,0.93
2022-08-26T03:55:32.419Z,1.20
2022-08-26T03:58:00.882Z,1.20
2022-08-26T04:00:29.868Z,1.08
2022-08-26T04:02:57.618Z,1.00
2022-08-26T04:05:25.536Z,0.70
2022-08-26T04:07:52.982Z,0.90
2022-08-26T04:10:28.726Z,0.80
2022-08-26T04:12:58.820Z,0.80
2022-08-26T04:15:27.863Z,0.88
2022-08-26T04:17:57.318Z,0.90
2022-08-26T04:20:25.049Z,0.90
2022-08-26T04:22:52.851Z,0.73
2022-08-26T04:25:21.220Z,0.80
2022-08-26T04:27:48.682Z,0.98
2022-08-26T04:30:18.009Z,1.00
2022-08-26T04:32:45.561Z,1.08
2022-08-26T04:35:14.281Z,1.10
2022-08-26T04:37:43.121Z,1.23
2022-08-26T04:40:10.669Z,1.20
2022-08-26T04:42:38.096Z,1.48
2022-08-26T04:45:10.221Z,0.90
2022-08-26T04:47:37.927Z,1.00
2022-08-26T04:50:06.884Z,0.90
2022-08-26T04:52:36.601Z,1.15
2022-08-26T04:55:04.782Z,0.90
2022-08-26T04:57:34.400Z,0.95
2022-08-26T05:00:01.783Z,0.85
2022-08-26T05:02:31.485Z,1.10
2022-08-26T05:04:58.863Z,1.00
2022-08-26T05:07:26.737Z,0.90
2022-08-26T05:09:55.619Z,0.80
2022-08-26T05:12:23.396Z,1.00
2022-08-26T05:14:51.235Z,0.80
2022-08-26T05:17:19.315Z,1.17
2022-08-26T05:19:47.127Z,1.00
2022-08-26T05:22:15.259Z,0.83
2022-08-26T05:24:46.401Z,0.80
2022-08-26T05:27:15.125Z,0.55
2022-08-26T05:29:42.557Z,0.90
2022-08-26T05:32:11.747Z,0.80
2022-08-26T05:34:39.203Z,0.70
2022-08-26T05:37:06.704Z,1.23
2022-08-26T05:39:34.563Z,0.77
2022-08-26T05:42:02.208Z,0.82
2022-08-26T05:44:53.556Z,0.80
2022-08-26T05:47:18.419Z,0.70
2022-08-26T05:49:51.642Z,0.93
2022-08-26T05:52:19.390Z,0.60
2022-08-26T05:54:47.320Z,0.98
2022-08-26T05:57:15.254Z,0.90
2022-08-26T05:59:43.957Z,0.70
2022-08-26T06:02:13.384Z,0.75
2022-08-26T06:04:41.081Z,0.90
2022-08-26T06:07:11.663Z,0.80
2022-08-26T06:09:41.431Z,0.93
2022-08-26T06:12:08.891Z,0.93
2022-08-26T06:14:36.555Z,0.77
2022-08-26T06:17:05.663Z,0.60
2022-08-26T06:19:34.464Z,0.98
2022-08-26T06:22:23.618Z,0.60
2022-08-26T06:25:11.210Z,0.73
2022-08-26T06:27:39.080Z,0.60
2022-08-26T06:30:06.971Z,0.90
2022-08-26T06:32:35.782Z,0.77
2022-08-26T06:35:03.194Z,1.00
2022-08-26T06:37:30.912Z,0.73
2022-08-26T06:40:00.421Z,0.65
2022-08-26T06:42:27.853Z,0.70
2022-08-26T06:44:55.320Z,1.10
2022-08-26T06:47:22.727Z,0.65
2022-08-26T06:49:51.937Z,0.73
2022-08-26T06:52:24.294Z,0.60
2022-08-26T06:54:52.013Z,0.70
2022-08-26T06:57:20.465Z,0.80
2022-08-26T06:59:51.187Z,0.70
2022-08-26T07:02:19.468Z,0.80
2022-08-26T07:04:48.171Z,0.60
2022-08-26T07:07:21.913Z,0.57
2022-08-26T07:09:49.581Z,0.52
2022-08-26T07:12:20.408Z,0.57
2022-08-26T07:14:48.229Z,0.50
2022-08-26T07:17:15.789Z,0.60
2022-08-26T07:19:43.897Z,0.70
2022-08-26T07:22:11.304Z,0.60
2022-08-26T07:24:41.064Z,0.60
2022-08-26T07:27:11.531Z,0.52
2022-08-26T07:29:39.941Z,0.70
2022-08-26T07:32:07.720Z,0.75
2022-08-26T07:34:35.251Z,1.00
2022-08-26T07:37:03.617Z,0.73
2022-08-26T07:39:32.868Z,0.70
2022-08-26T07:42:07.391Z,0.77
2022-08-26T07:44:36.052Z,0.55
2022-08-26T07:47:03.516Z,0.77
2022-08-26T07:49:38.410Z,0.63
2022-08-26T07:52:06.251Z,1.38
2022-08-26T07:54:33.704Z,1.00
2022-08-26T07:57:05.091Z,0.93
2022-08-26T07:59:35.833Z,0.90
2022-08-26T08:02:03.273Z,0.90
2022-08-26T08:04:30.690Z,0.50
2022-08-26T08:06:58.430Z,1.00
2022-08-26T08:09:26.394Z,0.85
2022-08-26T08:11:54.620Z,1.00
2022-08-26T08:14:23.393Z,0.85
2022-08-26T08:16:54.765Z,0.90
2022-08-26T08:19:23.038Z,0.98
2022-08-26T08:21:51.488Z,0.80
2022-08-26T08:24:19.748Z,1.08
2022-08-26T08:26:47.902Z,1.20
2022-08-26T08:29:15.285Z,1.30
2022-08-26T08:31:59.920Z,0.90
2022-08-26T08:34:29.008Z,1.15
2022-08-26T08:36:57.104Z,1.30
2022-08-26T08:39:25.314Z,1.20
2022-08-26T08:41:59.421Z,1.00
2022-08-26T08:46:59.582Z,0.75
2022-08-26T08:49:27.500Z,0.85
2022-08-26T08:51:59.745Z,1.05
2022-08-26T08:54:29.005Z,1.17
2022-08-26T08:57:00.612Z,1.10
2022-08-26T08:59:28.879Z,1.30
2022-08-26T09:02:02.134Z,0.80
2022-08-26T09:04:43.182Z,1.50
2022-08-26T09:07:12.842Z,1.10
2022-08-26T09:09:41.416Z,1.25
2022-08-26T09:12:12.664Z,1.10
2022-08-26T09:14:40.076Z,1.30
2022-08-26T09:17:13.014Z,1.10
2022-08-26T09:19:43.602Z,0.90
2022-08-26T09:22:11.173Z,1.10
2022-08-26T09:24:41.984Z,1.10
2022-08-26T09:27:36.239Z,0.98
2022-08-26T09:30:05.749Z,0.80
2022-08-26T09:32:35.177Z,1.02
2022-08-26T09:35:03.750Z,1.15
2022-08-26T09:37:38.064Z,0.98
2022-08-26T09:40:27.804Z,0.98
2022-08-26T09:43:07.657Z,0.80
2022-08-26T09:45:36.932Z,1.03
2022-08-26T09:48:05.927Z,0.85
2022-08-26T09:50:34.132Z,0.95
2022-08-26T09:53:05.436Z,1.05
2022-08-26T09:55:38.077Z,1.00
2022-08-26T09:58:08.773Z,1.02
2022-08-26T10:00:38.661Z,1.20
2022-08-26T10:03:10.657Z,1.10
2022-08-26T10:05:40.299Z,1.10
2022-08-26T10:08:20.784Z,1.10
2022-08-26T10:10:53.411Z,1.00
2022-08-26T10:13:24.351Z,0.90
2022-08-26T10:15:55.849Z,1.00
2022-08-26T10:18:28.729Z,0.80
2022-08-26T10:21:02.587Z,0.80
2022-08-26T10:23:34.628Z,0.80
2022-08-26T10:26:05.673Z,0.88
2022-08-26T10:28:38.966Z,0.70
2022-08-26T10:31:09.774Z,1.10
2022-08-26T10:33:40.309Z,0.88
2022-08-26T10:36:32.269Z,0.73
2022-08-26T10:39:03.246Z,0.85
2022-08-26T10:41:34.227Z,0.90
2022-08-26T10:44:02.386Z,0.80
2022-08-26T10:46:36.990Z,1.10
2022-08-26T10:49:07.417Z,1.20
2022-08-26T10:51:38.749Z,0.90
2022-08-26T10:54:09.488Z,0.70
2022-08-26T10:56:44.069Z,0.85
2022-08-26T10:59:15.396Z,0.70
2022-08-26T11:01:52.447Z,1.15
2022-08-26T11:04:38.144Z,0.80
2022-08-26T11:07:24.192Z,1.00
2022-08-26T11:09:52.020Z,1.30
2022-08-26T11:12:38.100Z,1.00
2022-08-26T11:15:06.418Z,1.10
2022-08-26T11:17:55.618Z,1.17
2022-08-26T11:20:35.084Z,1.15
2022-08-26T11:23:23.750Z,0.95
2022-08-26T11:26:06.337Z,1.00
2022-08-26T11:28:38.221Z,0.82
2022-08-26T11:31:09.307Z,0.90
2022-08-26T11:33:47.700Z,1.08
2022-08-26T11:36:38.177Z,1.15
2022-08-26T11:39:14.004Z,0.85
2022-08-26T11:41:43.879Z,1.00
2022-08-26T11:44:11.979Z,0.82
2022-08-26T11:46:39.611Z,1.20
2022-08-26T11:49:08.174Z,1.10
2022-08-26T11:51:40.929Z,1.38
2022-08-26T11:54:10.276Z,1.20
2022-08-26T11:56:38.541Z,0.98
2022-08-26T11:59:09.615Z,1.00
2022-08-26T12:01:39.112Z,1.20
2022-08-26T12:04:07.444Z,0.85
2022-08-26T12:06:38.927Z,0.90
2022-08-26T12:09:15.721Z,1.10
2022-08-26T12:11:43.853Z,1.20
2022-08-26T12:14:17.539Z,1.27
2022-08-26T12:16:45.442Z,1.00
2022-08-26T12:19:25.210Z,1.35
2022-08-26T12:21:54.799Z,0.80
2022-08-26T12:24:23.583Z,0.88
2022-08-26T12:27:15.447Z,1.00
2022-08-26T12:29:42.903Z,1.20
2022-08-26T12:32:17.599Z,1.02
2022-08-26T12:34:46.220Z,1.10
2022-08-26T12:37:14.823Z,0.90
2022-08-26T12:39:45.166Z,0.85
2022-08-26T12:42:39.875Z,1.00
2022-08-26T12:45:08.042Z,1.35
2022-08-26T12:47:42.714Z,1.00
2022-08-26T12:50:13.004Z,1.00
2022-08-26T12:52:43.975Z,1.07
2022-08-26T12:55:20.808Z,1.17
2022-08-26T12:57:48.313Z,1.17
2022-08-26T13:00:28.472Z,1.20
2022-08-26T13:02:56.240Z,1.13
2022-08-26T13:44:47.708Z,1.17
2022-08-26T19:41:53.449Z,0.88
2022-08-26T19:44:35.907Z,0.90
2022-08-26T19:47:04.490Z,1.02
2022-08-26T19:49:31.979Z,1.35
2022-08-26T19:51:59.468Z,0.77
2022-08-26T19:54:27.109Z,1.13
2022-08-26T19:56:55.898Z,0.80
2022-08-26T19:59:23.324Z,1.00
2022-08-26T20:02:00.764Z,1.17
2022-08-26T20:04:29.309Z,0.85
2022-08-26T20:07:00.323Z,1.00
2022-08-26T20:09:28.552Z,1.02
2022-08-26T20:11:57.468Z,1.00
2022-08-26T20:14:25.036Z,0.93
2022-08-26T20:16:52.552Z,1.08
2022-08-26T20:19:37.824Z,1.17
2022-08-26T20:22:05.997Z,0.88
2022-08-26T20:24:34.150Z,0.90
2022-08-26T20:27:07.248Z,1.40
2022-08-26T20:29:35.657Z,1.30
2022-08-26T20:32:03.283Z,0.90
2022-08-26T20:34:30.713Z,1.00
2022-08-26T20:36:58.241Z,1.20
2022-08-26T20:39:28.786Z,0.98
2022-08-26T20:41:56.704Z,1.30
2022-08-26T20:44:25.735Z,0.90
2022-08-26T20:46:53.562Z,1.30
2022-08-26T20:49:20.992Z,1.55
2022-08-26T20:51:50.660Z,1.20
2022-08-26T20:56:45.395Z,1.30
2022-08-26T20:59:12.816Z,1.25
2022-08-26T21:01:42.097Z,0.95
2022-08-26T21:06:38.239Z,1.30
2022-08-26T21:09:06.628Z,1.10
2022-08-26T21:11:34.699Z,1.17
2022-08-26T21:14:15.661Z,0.95
2022-08-26T21:16:46.731Z,1.13
2022-08-26T21:19:15.125Z,1.20
2022-08-26T21:21:42.684Z,1.02
2022-08-26T21:24:10.181Z,1.20
2022-08-26T21:26:38.025Z,1.20
2022-08-26T21:29:06.644Z,1.30
2022-08-26T21:31:34.931Z,0.95
2022-08-26T21:34:03.754Z,1.27
2022-08-26T21:36:31.224Z,1.73
2022-08-26T21:38:58.955Z,2.10
2022-08-26T21:41:27.240Z,2.20
2022-08-26T21:43:58.876Z,1.83
2022-08-26T21:46:27.100Z,2.00
2022-08-26T21:48:55.589Z,1.83
2022-08-26T21:51:25.180Z,2.00
2022-08-26T21:53:53.192Z,2.28
2022-08-26T21:56:21.524Z,1.80
2022-08-26T21:58:48.930Z,1.70
2022-08-26T22:01:21.419Z,1.90
2022-08-26T22:03:48.944Z,1.92
2022-08-26T22:06:17.397Z,1.60
2022-08-26T22:08:46.149Z,1.50
2022-08-26T22:11:14.248Z,1.75
2022-08-26T22:13:42.432Z,1.80
2022-08-26T22:16:10.291Z,2.05
2022-08-26T22:18:38.386Z,2.20
2022-08-26T22:21:06.718Z,1.88
2022-08-26T22:23:35.081Z,1.40
2022-08-26T22:26:03.880Z,1.60
2022-08-26T22:28:31.758Z,1.58
2022-08-26T22:30:59.355Z,1.45
2022-08-26T22:33:26.783Z,1.30
2022-08-26T22:35:55.188Z,1.53
2022-08-26T22:38:23.715Z,1.83
2022-08-26T22:40:55.186Z,1.50
2022-08-26T22:43:24.284Z,1.53
2022-08-26T22:45:52.827Z,1.83
2022-08-26T22:48:21.570Z,1.60
2022-08-26T22:50:49.412Z,1.58
2022-08-26T22:53:17.579Z,1.88
2022-08-26T22:55:45.677Z,1.75
2022-08-26T22:58:14.396Z,1.70
2022-08-26T23:00:43.335Z,1.58
2022-08-26T23:03:11.690Z,1.85
2022-08-26T23:05:39.764Z,1.60
2022-08-26T23:08:07.505Z,1.90
2022-08-26T23:10:36.803Z,1.73
2022-08-26T23:13:05.068Z,1.90
2022-08-26T23:15:32.480Z,1.63
2022-08-26T23:18:01.303Z,2.00
2022-08-26T23:20:29.632Z,1.80
2022-08-26T23:22:57.294Z,1.85
2022-08-26T23:25:24.911Z,1.80
2022-08-26T23:27:52.454Z,1.73
2022-08-26T23:30:21.533Z,1.80
2022-08-26T23:32:49.158Z,1.73
2022-08-26T23:35:20.078Z,1.88
2022-08-26T23:37:48.051Z,2.22
2022-08-26T23:40:17.786Z,2.07
2022-08-26T23:42:45.278Z,2.30
2022-08-26T23:45:13.657Z,2.45
2022-08-26T23:47:41.324Z,2.28
2022-08-26T23:50:09.388Z,2.13
2022-08-26T23:52:52.076Z,2.10
2022-08-26T23:55:19.564Z,2.00
2022-08-26T23:57:46.943Z,1.60
